createdAt,value
2022-12-19T00:01:01.829Z,102330.83
2022-12-19T00:03:33.955Z,102326.81
2022-12-19T00:06:06.367Z,102318.32
2022-12-19T00:08:38.375Z,102307.92
2022-12-19T00:11:10.863Z,102296.25
2022-12-19T00:13:43.734Z,102290.35
2022-12-19T00:16:18.804Z,102294.67
2022-12-19T00:18:55.226Z,102289.88
2022-12-19T00:21:29.718Z,102285.54
2022-12-19T00:24:01.712Z,102283.96
2022-12-19T00:26:35.030Z,102281.52
2022-12-19T00:29:14.123Z,102277.71
2022-12-19T00:31:46.863Z,102269.35
2022-12-19T00:34:19.511Z,102266.12
2022-12-19T00:36:51.270Z,102259.95
2022-12-19T00:39:23.207Z,102258.95
2022-12-19T00:41:55.096Z,102262.28
2022-12-19T00:44:28.192Z,102266.61
2022-12-19T00:46:59.899Z,102265.16
2022-12-19T00:49:31.797Z,102262.45
2022-12-19T00:52:04.862Z,102257.76
2022-12-19T00:54:36.815Z,102262.91
2022-12-19T00:57:08.929Z,102268.48
2022-12-19T00:59:41.241Z,102274.72
2022-12-19T01:02:13.093Z,102270.83
2022-12-19T01:04:45.377Z,102264.63
2022-12-19T01:07:17.569Z,102273.77
2022-12-19T01:09:49.268Z,102267.66
2022-12-19T01:12:40.841Z,102264.38
2022-12-19T01:15:13.120Z,102259.55
2022-12-19T01:17:45.284Z,102247.73
2022-12-19T01:20:18.174Z,102239.50
2022-12-19T01:23:00.815Z,102241.27
2022-12-19T01:25:33.750Z,102238.45
2022-12-19T01:28:09.061Z,102234.91
2022-12-19T01:30:43.668Z,102232.31
2022-12-19T01:33:18.222Z,102237.33
2022-12-19T01:35:50.504Z,102230.86
2022-12-19T01:38:23.276Z,102225.85
2022-12-19T01:40:56.904Z,102216.97
2022-12-19T01:43:32.774Z,102207.92
2022-12-19T01:46:07.305Z,102198.58
2022-12-19T01:48:43.787Z,102198.99
2022-12-19T01:51:20.899Z,102198.30
2022-12-19T01:53:56.008Z,102198.46
2022-12-19T01:56:32.924Z,102188.90
2022-12-19T01:59:09.203Z,102180.64
2022-12-19T02:01:51.885Z,102185.82
2022-12-19T02:04:32.352Z,102187.54
2022-12-19T02:07:12.864Z,102186.55
2022-12-19T02:09:56.840Z,102187.84
2022-12-19T02:12:35.124Z,102179.98
2022-12-19T02:15:09.479Z,102177.71
2022-12-19T02:17:52.730Z,102171.73
2022-12-19T02:21:01.279Z,102168.48
2022-12-19T02:24:18.480Z,102162.34
2022-12-19T02:27:01.234Z,102154.29
2022-12-19T02:30:05.534Z,102148.46
2022-12-19T02:32:47.005Z,102142.44
2022-12-19T02:35:28.580Z,102140.71
2022-12-19T02:38:13.265Z,102142.23
2022-12-19T02:40:51.887Z,102140.69
2022-12-19T02:43:33.593Z,102143.05
2022-12-19T02:46:07.399Z,102143.64
2022-12-19T02:48:40.588Z,102148.27
2022-12-19T02:51:12.649Z,102148.80
2022-12-19T02:53:45.602Z,102150.13
2022-12-19T02:56:39.093Z,102153.13
2022-12-19T02:59:44.102Z,102143.09
2022-12-19T03:02:30.918Z,102136.14
2022-12-19T03:05:15.144Z,102129.27
2022-12-19T03:07:57.419Z,102125.73
2022-12-19T03:10:38.441Z,102126.05
2022-12-19T03:13:13.769Z,102119.17
2022-12-19T03:15:46.130Z,102116.16
2022-12-19T03:18:16.309Z,102104.34
2022-12-19T03:20:51.564Z,102095.67
2022-12-19T03:23:23.497Z,102091.14
2022-12-19T03:26:00.494Z,102091.23
2022-12-19T03:28:40.630Z,102086.10
2022-12-19T03:31:15.501Z,102077.16
2022-12-19T03:33:51.603Z,102071.90
2022-12-19T03:36:29.998Z,102063.89
2022-12-19T03:39:03.938Z,102061.40
2022-12-19T03:41:55.463Z,102057.06
2022-12-19T03:44:32.690Z,102052.34
2022-12-19T03:47:11.417Z,102051.69
2022-12-19T03:49:43.724Z,102059.53
2022-12-19T03:52:26.343Z,102059.23
2022-12-19T03:55:02.370Z,102057.04
2022-12-19T03:57:40.983Z,102057.98
2022-12-19T04:00:17.236Z,102055.90
2022-12-19T04:02:52.145Z,102051.88
2022-12-19T04:05:26.876Z,102044.86
2022-12-19T04:08:02.535Z,102033.66
2022-12-19T04:10:40.598Z,102033.19
2022-12-19T04:13:14.896Z,102032.17
2022-12-19T04:15:53.029Z,102040.55
2022-12-19T04:18:25.661Z,102033.20
2022-12-19T04:21:04.258Z,102027.97
2022-12-19T04:23:42.004Z,102018.85
2022-12-19T04:26:17.411Z,102016.76
2022-12-19T04:28:53.937Z,102013.99
2022-12-19T04:31:26.015Z,102011.40
2022-12-19T04:33:58.083Z,102005.29
2022-12-19T04:36:30.153Z,101998.70
2022-12-19T04:39:01.934Z,101988.80
2022-12-19T04:41:33.602Z,101999.35
2022-12-19T04:44:05.505Z,101997.80
2022-12-19T04:46:37.155Z,101992.26
2022-12-19T04:49:08.943Z,101990.83
2022-12-19T04:51:40.892Z,101990.17
2022-12-19T04:54:13.013Z,101992.59
2022-12-19T04:56:44.692Z,101995.97
2022-12-19T04:59:16.448Z,101998.90
2022-12-19T05:01:48.383Z,101999.10
2022-12-19T05:04:20.505Z,101997.11
2022-12-19T05:06:52.155Z,102001.92
2022-12-19T05:09:24.157Z,102003.87
2022-12-19T05:11:54.947Z,102006.41
2022-12-19T05:14:27.133Z,102002.89
2022-12-19T05:17:01.203Z,102004.63
2022-12-19T05:19:34.151Z,102005.39
2022-12-19T05:22:06.050Z,101998.45
2022-12-19T05:24:37.837Z,101999.77
2022-12-19T05:27:09.599Z,101992.46
2022-12-19T05:29:41.491Z,101988.68
2022-12-19T05:32:13.183Z,101981.67
2022-12-19T05:34:45.043Z,101985.23
2022-12-19T05:37:16.794Z,101979.52
2022-12-19T05:39:48.484Z,101975.58
2022-12-19T05:42:22.252Z,101970.58
2022-12-19T05:44:53.999Z,101972.05
2022-12-19T05:47:25.674Z,101962.86
2022-12-19T05:49:57.577Z,101959.33
2022-12-19T05:52:29.194Z,101954.88
2022-12-19T05:55:00.919Z,101955.02
2022-12-19T05:57:32.754Z,101952.39
2022-12-19T06:00:05.317Z,101950.23
2022-12-19T06:02:44.805Z,101947.02
2022-12-19T06:05:18.995Z,101946.95
2022-12-19T06:07:50.971Z,101942.70
2022-12-19T06:10:22.577Z,101942.36
2022-12-19T06:12:54.632Z,101944.42
2022-12-19T06:15:27.087Z,101939.65
2022-12-19T06:17:59.601Z,101933.43
2022-12-19T06:20:31.325Z,101942.33
2022-12-19T06:23:03.092Z,101938.67
2022-12-19T06:25:35.128Z,101934.33
2022-12-19T06:28:07.423Z,101933.57
2022-12-19T06:30:39.901Z,101932.98
2022-12-19T06:33:11.961Z,101930.48
2022-12-19T06:35:44.335Z,101924.27
2022-12-19T06:38:16.064Z,101928.35
2022-12-19T06:41:05.240Z,101928.97
2022-12-19T06:43:36.919Z,101930.59
2022-12-19T06:46:09.072Z,101926.20
2022-12-19T06:48:39.524Z,101924.52
2022-12-19T06:51:11.097Z,101923.46
2022-12-19T06:53:42.686Z,101923.61
2022-12-19T06:56:17.001Z,101923.05
2022-12-19T06:58:49.261Z,101928.88
2022-12-19T07:01:25.049Z,101921.05
2022-12-19T07:03:58.025Z,101915.16
2022-12-19T07:06:30.455Z,101907.58
2022-12-19T07:09:02.239Z,101904.92
2022-12-19T07:11:34.158Z,101901.04
2022-12-19T07:14:06.259Z,101900.44
2022-12-19T07:16:40.954Z,101899.67
2022-12-19T07:19:14.042Z,101900.21
2022-12-19T07:21:45.919Z,101904.72
2022-12-19T07:24:18.202Z,101895.20
2022-12-19T07:26:50.566Z,101896.99
2022-12-19T07:29:22.202Z,101897.86
2022-12-19T07:31:54.134Z,101895.51
2022-12-19T07:34:26.085Z,101890.52
2022-12-19T07:36:58.025Z,101889.36
2022-12-19T07:39:29.870Z,101888.61
2022-12-19T07:42:01.663Z,101889.08
2022-12-19T07:44:37.904Z,101888.33
2022-12-19T07:47:09.772Z,101889.11
2022-12-19T07:49:41.684Z,101880.92
2022-12-19T07:52:13.883Z,101882.70
2022-12-19T07:54:45.532Z,101874.95
2022-12-19T07:57:18.158Z,101872.70
2022-12-19T07:59:50.268Z,101876.34
2022-12-19T08:02:22.673Z,101878.58
2022-12-19T08:04:55.417Z,101877.10
2022-12-19T08:07:27.911Z,101873.91
2022-12-19T08:09:59.901Z,101874.20
2022-12-19T08:12:33.417Z,101872.31
2022-12-19T08:15:05.785Z,101855.66
2022-12-19T08:17:39.642Z,101847.81
2022-12-19T08:20:14.184Z,101836.50
2022-12-19T08:22:45.960Z,101829.25
2022-12-19T08:25:17.754Z,101830.10
2022-12-19T08:27:49.454Z,101834.00
2022-12-19T08:30:21.419Z,101832.58
2022-12-19T08:32:53.255Z,101826.71
2022-12-19T08:35:25.256Z,101827.83
2022-12-19T08:37:57.134Z,101831.05
2022-12-19T08:40:28.860Z,101829.18
2022-12-19T08:43:00.578Z,101828.98
2022-12-19T08:45:32.828Z,101828.75
2022-12-19T08:48:04.682Z,101824.14
2022-12-19T08:50:36.378Z,101825.94
2022-12-19T08:53:08.040Z,101834.47
2022-12-19T08:55:39.839Z,101839.45
2022-12-19T08:58:12.026Z,101836.73
2022-12-19T09:00:45.496Z,101830.77
2022-12-19T09:03:26.014Z,101822.86
2022-12-19T09:06:12.019Z,101815.89
2022-12-19T09:08:50.217Z,101805.35
2022-12-19T09:11:22.864Z,101803.43
2022-12-19T09:13:56.358Z,101791.33
2022-12-19T09:16:29.487Z,101786.73
2022-12-19T09:19:01.306Z,101785.83
2022-12-19T09:21:33.052Z,101795.72
2022-12-19T09:24:07.967Z,101798.83
2022-12-19T09:26:42.193Z,101791.20
2022-12-19T09:29:20.620Z,101791.72
2022-12-19T09:31:56.554Z,101786.27
2022-12-19T09:34:37.123Z,101779.70
2022-12-19T09:37:15.935Z,101779.34
2022-12-19T09:39:50.131Z,101777.50
2022-12-19T09:42:45.768Z,101775.10
2022-12-19T09:45:32.975Z,101772.98
2022-12-19T09:48:11.637Z,101765.98
2022-12-19T09:51:09.996Z,101751.17
2022-12-19T09:53:54.231Z,101748.89
2022-12-19T09:56:33.045Z,101742.96
2022-12-19T09:59:14.051Z,101732.16
2022-12-19T10:01:56.205Z,101732.54
2022-12-19T10:04:34.294Z,101726.20
2022-12-19T10:07:30.578Z,101725.48
2022-12-19T10:12:33.216Z,101718.00
2022-12-19T10:13:12.848Z,101717.53
2022-12-19T10:15:59.068Z,101708.38
2022-12-19T10:18:57.101Z,101709.44
2022-12-19T10:25:08.267Z,101706.42
2022-12-19T10:27:57.365Z,101702.14
2022-12-19T10:30:36.183Z,101698.26
2022-12-19T10:33:20.551Z,101694.31
2022-12-19T10:36:02.045Z,101687.84
2022-12-19T10:38:48.809Z,101683.55
2022-12-19T10:41:25.609Z,101677.46
2022-12-19T10:44:06.005Z,101674.24
2022-12-19T10:46:45.903Z,101669.23
2022-12-19T10:49:19.343Z,101664.34
2022-12-19T10:52:00.703Z,101653.76
2022-12-19T10:54:43.774Z,101642.56
2022-12-19T10:57:27.204Z,101635.86
2022-12-19T11:00:01.164Z,101628.23
2022-12-19T11:02:44.869Z,101623.33
2022-12-19T11:05:30.062Z,101622.14
2022-12-19T11:08:18.505Z,101616.15
2022-12-19T11:12:01.081Z,101617.23
2022-12-19T11:16:48.501Z,101614.88
2022-12-19T11:23:07.197Z,101608.29
2022-12-19T11:29:15.977Z,101600.89
2022-12-19T11:29:32.465Z,101594.04
2022-12-19T11:29:42.128Z,101595.42
2022-12-19T11:30:47.111Z,101588.49
2022-12-19T11:34:19.470Z,101591.40
2022-12-19T11:36:58.017Z,101586.47
2022-12-19T11:39:41.991Z,101585.83
2022-12-19T11:42:24.292Z,101580.20
2022-12-19T11:45:04.260Z,101585.41
2022-12-19T11:47:42.113Z,101580.90
2022-12-19T11:50:20.756Z,101579.71
2022-12-19T11:53:04.916Z,101579.80
2022-12-19T11:55:45.802Z,101579.31
2022-12-19T11:58:18.142Z,101584.43
2022-12-19T12:00:56.770Z,101576.02
2022-12-19T12:04:00.385Z,101560.08
2022-12-19T12:06:45.411Z,101550.14
2022-12-19T12:11:07.930Z,101539.90
2022-12-19T12:20:21.073Z,101532.72
2022-12-19T12:27:25.877Z,101531.00
2022-12-19T12:30:59.944Z,101527.50
2022-12-19T12:31:27.458Z,101515.49
2022-12-19T12:31:52.738Z,101494.50
2022-12-19T12:32:01.911Z,101509.48
2022-12-19T12:35:28.675Z,101492.27
2022-12-19T12:35:54.550Z,101493.70
2022-12-19T12:38:13.815Z,101493.34
2022-12-19T12:40:32.437Z,101490.91
2022-12-19T12:43:17.629Z,101481.84
2022-12-19T12:45:49.837Z,101478.70
2022-12-19T12:48:27.806Z,101475.23
2022-12-19T12:51:02.365Z,101470.95
2022-12-19T12:53:39.501Z,101470.31
2022-12-19T12:56:15.476Z,101465.83
2022-12-19T12:59:25.477Z,101453.58
2022-12-19T13:01:59.387Z,101444.59
2022-12-19T13:04:42.076Z,101433.08
2022-12-19T13:07:27.977Z,101424.45
2022-12-19T13:10:19.115Z,101422.09
2022-12-19T13:13:05.947Z,101429.67
2022-12-19T13:15:43.510Z,101424.66
2022-12-19T13:18:38.815Z,101425.31
2022-12-19T13:21:12.077Z,101422.59
2022-12-19T13:23:51.544Z,101417.91
2022-12-19T13:26:41.980Z,101415.50
2022-12-19T13:30:03.802Z,101412.20
2022-12-19T13:33:10.116Z,101420.04
2022-12-19T13:37:04.475Z,101420.79
2022-12-19T13:39:59.856Z,101415.29
2022-12-19T13:42:02.344Z,101404.09
2022-12-19T13:44:40.824Z,101399.95
2022-12-19T13:47:21.942Z,101404.59
2022-12-19T13:49:58.130Z,101401.41
2022-12-19T13:52:29.804Z,101400.21
2022-12-19T13:55:02.306Z,101398.27
2022-12-19T13:57:34.859Z,101386.54
2022-12-19T14:00:17.759Z,101389.23
2022-12-19T14:02:54.747Z,101392.63
2022-12-19T14:06:15.001Z,101389.90
2022-12-19T14:08:26.043Z,101388.58
2022-12-19T14:11:34.838Z,101385.63
2022-12-19T14:14:20.693Z,101378.63
2022-12-19T14:17:06.255Z,101374.02
2022-12-19T14:19:44.065Z,101375.72
2022-12-19T14:22:25.757Z,101369.71
2022-12-19T14:25:33.171Z,101367.73
2022-12-19T14:28:18.784Z,101362.12
2022-12-19T14:30:53.495Z,101357.60
2022-12-19T14:33:46.944Z,101362.17
2022-12-19T14:36:27.809Z,101355.28
2022-12-19T14:39:27.477Z,101356.42
2022-12-19T14:42:12.779Z,101359.06
2022-12-19T14:52:35.818Z,101355.23
2022-12-19T14:53:08.429Z,101355.80
2022-12-19T14:54:18.275Z,101346.94
2022-12-19T14:54:21.706Z,101352.48
2022-12-19T14:59:27.947Z,101348.77
2022-12-19T15:02:04.817Z,101348.82
2022-12-19T15:04:52.200Z,101348.27
2022-12-19T15:07:29.418Z,101345.80
2022-12-19T15:10:58.553Z,101338.27
2022-12-19T15:14:52.795Z,101334.25
2022-12-19T15:16:26.744Z,101327.82
2022-12-19T15:19:01.406Z,101327.77
2022-12-19T15:21:33.566Z,101328.48
2022-12-19T15:24:05.904Z,101332.75
2022-12-19T15:26:48.047Z,101331.98
2022-12-19T15:29:22.228Z,101327.00
2022-12-19T15:31:54.328Z,101322.91
2022-12-19T15:34:38.330Z,101316.13
2022-12-19T15:37:15.188Z,101308.58
2022-12-19T15:39:47.260Z,101300.23
2022-12-19T15:42:22.411Z,101299.14
2022-12-19T15:44:56.697Z,101298.61
2022-12-19T15:47:34.616Z,101295.52
2022-12-19T15:50:19.020Z,101289.39
2022-12-19T15:52:51.195Z,101285.68
2022-12-19T15:55:28.150Z,101283.19
2022-12-19T15:58:04.198Z,101283.85
2022-12-19T16:00:37.793Z,101280.46
2022-12-19T16:03:22.516Z,101276.74
2022-12-19T16:05:56.187Z,101276.97
2022-12-19T16:08:29.220Z,101273.20
2022-12-19T16:11:02.177Z,101272.08
2022-12-19T16:13:36.639Z,101266.03
2022-12-19T16:16:15.759Z,101260.60
2022-12-19T16:18:48.335Z,101251.89
2022-12-19T16:21:33.474Z,101250.30
2022-12-19T16:24:06.560Z,101247.91
2022-12-19T16:26:40.727Z,101241.13
2022-12-19T16:29:21.262Z,101236.51
2022-12-19T16:31:53.229Z,101240.15
2022-12-19T16:34:26.778Z,101233.83
2022-12-19T16:36:58.439Z,101221.70
2022-12-19T16:39:30.623Z,101224.10
2022-12-19T16:42:04.076Z,101222.95
2022-12-19T16:44:36.950Z,101221.17
2022-12-19T16:47:14.749Z,101217.68
2022-12-19T16:49:46.949Z,101213.96
2022-12-19T16:52:19.721Z,101219.40
2022-12-19T16:54:52.339Z,101217.87
2022-12-19T16:57:24.837Z,101214.00
2022-12-19T16:59:56.753Z,101219.17
2022-12-19T17:02:45.200Z,101211.47
2022-12-19T17:05:26.605Z,101214.63
2022-12-19T17:07:58.978Z,101212.30
2022-12-19T17:10:34.219Z,101217.79
2022-12-19T17:13:06.791Z,101217.02
2022-12-19T17:15:39.770Z,101217.52
2022-12-19T17:18:16.227Z,101214.25
2022-12-19T17:20:48.106Z,101212.45
2022-12-19T17:23:23.743Z,101209.11
2022-12-19T17:25:56.119Z,101206.92
2022-12-19T17:28:29.261Z,101208.45
2022-12-19T17:31:04.256Z,101200.70
2022-12-19T17:33:40.533Z,101200.48
2022-12-19T17:36:23.027Z,101196.00
2022-12-19T17:38:56.275Z,101195.05
2022-12-19T17:41:28.463Z,101192.63
2022-12-19T17:44:00.131Z,101185.00
2022-12-19T17:46:33.409Z,101182.44
2022-12-19T17:49:05.288Z,101182.95
2022-12-19T17:51:37.183Z,101181.36
2022-12-19T17:54:13.664Z,101175.83
2022-12-19T17:56:45.959Z,101176.78
2022-12-19T17:59:18.074Z,101171.14
2022-12-19T18:01:49.990Z,101170.64
2022-12-19T18:04:22.813Z,101168.16
2022-12-19T18:06:52.928Z,101165.63
2022-12-19T18:09:26.059Z,101155.33
2022-12-19T18:11:58.181Z,101160.34
2022-12-19T18:14:29.831Z,101153.62
2022-12-19T18:17:02.562Z,101149.52
2022-12-19T18:19:35.395Z,101148.92
2022-12-19T18:22:08.153Z,101149.17
2022-12-19T18:24:39.927Z,101145.73
2022-12-19T18:27:11.744Z,101142.84
2022-12-19T18:29:43.884Z,101142.29
2022-12-19T18:32:20.306Z,101144.61
2022-12-19T18:34:52.201Z,101146.48
2022-12-19T18:37:23.923Z,101140.57
2022-12-19T18:39:55.789Z,101144.33
2022-12-19T18:42:27.422Z,101146.14
2022-12-19T18:44:59.306Z,101133.62
2022-12-19T18:47:30.907Z,101141.85
2022-12-19T18:50:02.558Z,101140.80
2022-12-19T18:52:34.242Z,101142.36
2022-12-19T18:55:16.725Z,101142.05
2022-12-19T18:57:49.646Z,101143.39
2022-12-19T19:00:24.964Z,101138.67
2022-12-19T19:03:01.001Z,101140.33
2022-12-19T19:05:35.811Z,101138.20
2022-12-19T19:08:18.126Z,101134.83
2022-12-19T19:10:54.816Z,101132.66
2022-12-19T19:13:28.212Z,101135.85
2022-12-19T19:16:02.574Z,101138.38
2022-12-19T19:18:38.603Z,101134.59
2022-12-19T19:21:13.189Z,101134.71
2022-12-19T19:23:49.914Z,101141.20
2022-12-19T19:26:22.039Z,101135.52
2022-12-19T19:28:53.866Z,101134.34
2022-12-19T19:31:29.204Z,101134.13
2022-12-19T19:34:05.682Z,101135.67
2022-12-19T19:36:41.086Z,101139.42
2022-12-19T19:39:14.075Z,101139.46
2022-12-19T19:41:45.855Z,101130.89
2022-12-19T19:44:17.590Z,101131.06
2022-12-19T19:46:49.561Z,101135.20
2022-12-19T19:49:22.891Z,101127.91
2022-12-19T19:52:00.542Z,101122.41
2022-12-19T19:54:35.349Z,101124.27
2022-12-19T19:57:08.322Z,101120.16
2022-12-19T19:59:38.720Z,101123.56
2022-12-19T20:02:13.704Z,101128.07
2022-12-19T20:04:48.833Z,101131.13
2022-12-19T20:07:20.482Z,101122.99
2022-12-19T20:09:52.329Z,101125.17
2022-12-19T20:12:25.189Z,101120.77
2022-12-19T20:14:59.891Z,101120.68
2022-12-19T20:17:31.686Z,101117.31
2022-12-19T20:20:03.315Z,101114.70
2022-12-19T20:22:35.180Z,101117.94
2022-12-19T20:25:08.870Z,101110.95
2022-12-19T20:27:40.787Z,101108.55
2022-12-19T20:30:14.079Z,101111.41
2022-12-19T20:32:46.159Z,101105.73
2022-12-19T20:35:18.125Z,101100.45
2022-12-19T20:37:49.809Z,101100.27
2022-12-19T20:40:21.740Z,101097.36
2022-12-19T20:42:53.771Z,101094.46
2022-12-19T20:45:25.965Z,101095.42
2022-12-19T20:47:57.698Z,101088.62
2022-12-19T20:50:29.347Z,101089.23
2022-12-19T20:53:01.193Z,101088.70
2022-12-19T20:55:32.895Z,101085.55
2022-12-19T20:58:04.570Z,101085.89
2022-12-19T21:00:37.489Z,101083.70
2022-12-19T21:06:01.626Z,101080.08
2022-12-19T21:08:33.723Z,101078.52
2022-12-19T21:11:07.031Z,101078.56
2022-12-19T21:13:40.940Z,101076.60
2022-12-19T21:16:15.704Z,101076.86
2022-12-19T21:18:48.896Z,101074.09
2022-12-19T21:21:22.677Z,101074.35
2022-12-19T21:23:55.830Z,101083.11
2022-12-19T21:26:27.875Z,101072.77
2022-12-19T21:28:59.866Z,101066.92
2022-12-19T21:31:32.565Z,101058.15
2022-12-19T21:34:05.116Z,101055.02
2022-12-19T21:36:38.644Z,101058.23
2022-12-19T21:39:11.175Z,101055.73
2022-12-19T21:41:42.778Z,101053.11
2022-12-19T21:44:14.540Z,101049.92
2022-12-19T21:46:46.375Z,101044.86
2022-12-19T21:49:17.983Z,101045.02
2022-12-19T21:51:49.855Z,101037.98
2022-12-19T21:54:21.749Z,101039.56
2022-12-19T21:56:53.414Z,101035.19
2022-12-19T21:59:25.072Z,101042.41
2022-12-19T22:01:57.854Z,101040.52
2022-12-19T22:04:30.188Z,101039.95
2022-12-19T22:07:05.089Z,101037.21
2022-12-19T22:09:36.909Z,101040.15
2022-12-19T22:12:10.556Z,101033.89
2022-12-19T22:14:42.309Z,101033.61
2022-12-19T22:17:15.134Z,101032.69
2022-12-19T22:19:46.970Z,101032.66
2022-12-19T22:22:19.111Z,101032.33
2022-12-19T22:24:54.690Z,101025.11
2022-12-19T22:27:26.303Z,101022.30
2022-12-19T22:30:03.403Z,101025.75
2022-12-19T22:32:39.176Z,101021.53
2022-12-19T22:35:11.740Z,101021.05
2022-12-19T22:37:43.754Z,101008.15
2022-12-19T22:40:16.350Z,101000.84
2022-12-19T22:42:48.068Z,101000.19
2022-12-19T22:45:20.251Z,100993.30
2022-12-19T22:47:52.052Z,100999.30
2022-12-19T22:50:23.668Z,100991.66
2022-12-19T22:52:55.409Z,100987.30
2022-12-19T22:55:27.103Z,100981.58
2022-12-19T22:57:58.792Z,100988.23
2022-12-19T23:00:36.522Z,100989.16
2022-12-19T23:03:08.548Z,100984.08
2022-12-19T23:05:42.107Z,100986.08
2022-12-19T23:08:16.152Z,100992.66
2022-12-19T23:10:52.736Z,100993.11
2022-12-19T23:13:26.107Z,100992.58
2022-12-19T23:15:58.559Z,100989.63
2022-12-19T23:18:30.212Z,100985.50
2022-12-19T23:21:11.838Z,100982.72
2022-12-19T23:23:44.818Z,100976.35
2022-12-19T23:26:18.476Z,100970.09
2022-12-19T23:28:55.262Z,100964.40
2022-12-19T23:31:28.122Z,100958.89
2022-12-19T23:34:01.038Z,100958.57
2022-12-19T23:37:09.047Z,100952.88
2022-12-19T23:39:24.878Z,100956.75
2022-12-19T23:41:56.492Z,100967.52
2022-12-19T23:44:28.622Z,100966.27
2022-12-19T23:47:03.562Z,100956.11
2022-12-19T23:49:36.581Z,100957.59
2022-12-19T23:52:08.321Z,100948.33
2022-12-19T23:54:39.986Z,100953.80
2022-12-19T23:57:11.671Z,100959.88
2022-12-19T23:59:43.491Z,100962.35
